Time;durP1;ratioP1;P1;durP2;ratioP2;P2;SDS_P1;SDS_P2;PMS_P1;PMS_P2;Temp;Humidity;BMP_temperature;BMP_pressure;BME280_temperature;BME280_humidity;BME280_pressure;Samples;Min_cycle;Max_cycle;Signal;HPM_P1;HPM_P2
2024/01/01 00:02:23;;;;;;;;;;;;;;;17.06;48.49;101041.94;5078516;28;1058;-55
2024/01/01 00:04:48;;;;;;;;;;;;;;;17.08;48.29;101046.06;5076653;28;1128;-57
2024/01/01 00:07:14;;;;;;;;;;;;;;;16.31;50.32;101037.44;5079023;28;1171;-57
2024/01/01 00:09:39;;;;;;;;;;;;;;;15.95;51.15;101044.59;5061821;28;1256;-57
2024/01/01 00:12:06;;;;;;;;;;;;;;;15.70;51.57;101041.38;5069989;28;1064;-58
2024/01/01 00:14:31;;;;;;;;;;;;;;;16.43;50.06;101040.00;5063547;28;1131;-57
2024/01/01 00:16:57;;;;;;;;;;;;;;;17.67;46.85;101038.47;5073327;28;1910;-57
2024/01/01 00:19:23;;;;;;;;;;;;;;;16.83;48.75;101043.19;5078711;28;1071;-57
2024/01/01 00:21:48;;;;;;;;;;;;;;;16.23;50.50;101041.53;5079396;28;1012;-58
2024/01/01 00:24:14;;;;;;;;;;;;;;;15.96;51.20;101040.78;5075413;28;1199;-57
2024/01/01 00:26:39;;;;;;;;;;;;;;;15.75;51.59;101037.84;5068049;28;1032;-57
2024/01/01 00:29:07;;;;;;;;;;;;;;;16.52;49.88;101037.56;5063084;28;948;-57
2024/01/01 00:31:33;;;;;;;;;;;;;;;17.76;46.86;101039.53;5050958;28;1154;-56
2024/01/01 00:33:58;;;;;;;;;;;;;;;16.96;48.48;101039.97;5072440;28;1080;-57
2024/01/01 00:36:24;;;;;;;;;;;;;;;16.31;50.07;101036.63;5059733;28;1043;-57
2024/01/01 00:38:51;;;;;;;;;;;;;;;16.04;50.57;101032.88;5058247;28;1979;-57
2024/01/01 00:41:16;;;;;;;;;;;;;;;15.83;51.53;101042.06;5072361;28;1099;-56
2024/01/01 00:43:43;;;;;;;;;;;;;;;16.57;49.64;101037.59;5047541;28;1027;-56
2024/01/01 00:46:09;;;;;;;;;;;;;;;17.65;46.74;101031.59;5060792;28;1532;-56
2024/01/01 00:48:34;;;;;;;;;;;;;;;16.60;49.24;101026.06;5071823;28;1127;-57
2024/01/01 00:51:00;;;;;;;;;;;;;;;16.10;50.75;101024.69;5040402;28;1151;-58
2024/01/01 00:53:25;;;;;;;;;;;;;;;15.90;51.03;101016.03;5071991;28;1198;-57
2024/01/01 00:55:51;;;;;;;;;;;;;;;15.71;51.54;101023.84;5071831;28;1086;-57
2024/01/01 00:58:16;;;;;;;;;;;;;;;16.18;50.66;101018.72;5071572;28;1994;-57
2024/01/01 01:00:42;;;;;;;;;;;;;;;17.54;46.93;101019.75;5072295;28;1176;-57
2024/01/01 01:03:08;;;;;;;;;;;;;;;16.84;48.59;101017.38;5063069;28;1116;-57
2024/01/01 01:05:33;;;;;;;;;;;;;;;16.28;50.08;101007.78;5060601;28;1142;-56
2024/01/01 01:07:59;;;;;;;;;;;;;;;15.91;51.06;101004.00;5065255;28;1129;-57
2024/01/01 01:10:25;;;;;;;;;;;;;;;15.73;51.68;101004.38;5046940;28;1147;-56
2024/01/01 01:12:53;;;;;;;;;;;;;;;17.02;48.47;101013.34;5060079;28;1110;-57
2024/01/01 01:15:19;;;;;;;;;;;;;;;17.21;47.67;101005.44;5067717;28;1151;-57
2024/01/01 01:17:45;;;;;;;;;;;;;;;16.42;49.91;101006.25;5078106;28;1914;-57
2024/01/01 01:20:10;;;;;;;;;;;;;;;15.99;51.06;101001.84;5077877;28;1058;-56
2024/01/01 01:22:36;;;;;;;;;;;;;;;15.79;51.57;100997.03;5071303;28;1080;-57
2024/01/01 01:25:02;;;;;;;;;;;;;;;15.64;51.92;100989.50;5071220;28;1020;-57
2024/01/01 01:27:27;;;;;;;;;;;;;;;17.15;48.35;100993.56;5043069;28;1123;-57
2024/01/01 01:29:53;;;;;;;;;;;;;;;17.35;47.53;100983.72;5071598;28;1148;-57
2024/01/01 01:32:18;;;;;;;;;;;;;;;16.43;49.68;100979.59;5071253;28;1119;-57
2024/01/01 01:34:44;;;;;;;;;;;;;;;16.01;50.77;100977.75;5053547;28;1580;-57
2024/01/01 01:37:10;;;;;;;;;;;;;;;15.80;51.60;100976.78;5071889;28;1971;-57
2024/01/01 01:39:35;;;;;;;;;;;;;;;16.51;50.05;100970.00;5065546;28;1107;-57
2024/01/01 01:42:01;;;;;;;;;;;;;;;17.75;46.59;100971.91;5040142;28;1090;-58
2024/01/01 01:44:27;;;;;;;;;;;;;;;16.74;49.13;100966.81;5059951;28;1258;-57
2024/01/01 01:46:52;;;;;;;;;;;;;;;16.19;50.47;100962.75;5059519;28;1116;-58
2024/01/01 01:49:18;;;;;;;;;;;;;;;15.89;51.23;100956.81;5065021;28;1089;-57
2024/01/01 01:51:47;;;;;;;;;;;;;;;15.69;51.60;100960.19;5071610;28;1076;-57
2024/01/01 01:54:13;;;;;;;;;;;;;;;16.85;48.96;100964.09;5070097;28;1076;-58
2024/01/01 01:56:38;;;;;;;;;;;;;;;17.60;46.73;100956.22;5076169;28;1306;-58
2024/01/01 01:59:04;;;;;;;;;;;;;;;16.53;49.46;100951.38;5059427;28;1914;-57
2024/01/01 02:01:30;;;;;;;;;;;;;;;16.12;50.58;100945.69;5059070;28;1331;-57
2024/01/01 02:03:55;;;;;;;;;;;;;;;15.77;51.31;100941.59;5071510;28;1157;-57
2024/01/01 02:06:21;;;;;;;;;;;;;;;15.69;51.78;100946.50;5070890;28;1134;-56
2024/01/01 02:08:47;;;;;;;;;;;;;;;16.11;50.76;100939.38;5051422;28;1257;-56
2024/01/01 02:11:13;;;;;;;;;;;;;;;17.52;47.15;100942.22;5076771;28;1135;-56
2024/01/01 02:13:39;;;;;;;;;;;;;;;17.01;48.39;100935.63;5047409;28;1166;-57
2024/01/01 02:16:04;;;;;;;;;;;;;;;16.31;50.05;100937.84;5043360;28;1208;-57
2024/01/01 02:18:30;;;;;;;;;;;;;;;15.96;51.04;100926.41;5077101;28;1914;-56
2024/01/01 02:20:56;;;;;;;;;;;;;;;15.72;51.52;100921.31;5076387;28;1122;-57
2024/01/01 02:23:24;;;;;;;;;;;;;;;15.59;51.93;100921.75;5076997;28;1099;-56
2024/01/01 02:25:50;;;;;;;;;;;;;;;17.06;48.36;100916.38;5045176;28;1342;-56
2024/01/01 02:28:16;;;;;;;;;;;;;;;17.23;47.55;100921.59;5065207;28;1072;-56
2024/01/01 02:30:42;;;;;;;;;;;;;;;16.38;50.00;100928.28;5057011;28;1074;-56
2024/01/01 02:33:10;;;;;;;;;;;;;;;16.02;50.91;100921.75;5056759;28;1060;-56
2024/01/01 02:35:36;;;;;;;;;;;;;;;15.84;51.09;100920.31;5069791;28;1048;-56
2024/01/01 02:38:04;;;;;;;;;;;;;;;15.60;51.76;100926.16;5069932;28;1901;-56
2024/01/01 02:40:36;;;;;;;;;;;;;;;16.86;48.95;100916.34;5039736;28;1276;-56
2024/01/01 02:43:02;;;;;;;;;;;;;;;17.78;46.73;100913.59;5052925;28;1531;-56
2024/01/01 02:45:28;;;;;;;;;;;;;;;16.58;49.35;100911.03;5077140;28;1062;-56
2024/01/01 02:47:54;;;;;;;;;;;;;;;16.15;50.62;100907.59;5076636;28;1110;-56
2024/01/01 02:50:20;;;;;;;;;;;;;;;15.86;51.16;100904.41;5076523;28;1062;-57
2024/01/01 02:52:46;;;;;;;;;;;;;;;15.63;51.65;100906.44;5066909;28;1027;-57
2024/01/01 02:55:11;;;;;;;;;;;;;;;17.17;48.27;100908.16;5064031;28;1127;-57
2024/01/01 02:57:37;;;;;;;;;;;;;;;17.18;47.80;100898.78;5058197;28;1969;-57
2024/01/01 03:00:03;;;;;;;;;;;;;;;16.33;50.02;100908.22;5076040;28;1086;-57
2024/01/01 03:02:29;;;;;;;;;;;;;;;15.98;50.80;100902.28;5075788;28;1253;-57
2024/01/01 03:04:55;;;;;;;;;;;;;;;15.72;51.40;100904.88;5073773;28;857;-57
2024/01/01 03:07:21;;;;;;;;;;;;;;;15.69;51.81;100899.06;5076102;28;1237;-57
2024/01/01 03:09:49;;;;;;;;;;;;;;;17.12;48.12;100897.16;5068391;28;1202;-57
2024/01/01 03:12:14;;;;;;;;;;;;;;;17.55;47.14;100894.94;5057418;28;1087;-57
2024/01/01 03:14:40;;;;;;;;;;;;;;;16.54;49.34;100892.63;5058562;28;1223;-57
2024/01/01 03:17:06;;;;;;;;;;;;;;;16.05;50.81;100891.91;5047940;28;1909;-57
2024/01/01 03:19:32;;;;;;;;;;;;;;;15.89;50.98;100877.28;5058245;28;1158;-57
2024/01/01 03:21:57;;;;;;;;;;;;;;;15.65;51.77;100871.34;5061815;28;1110;-56
2024/01/01 03:24:23;;;;;;;;;;;;;;;16.66;49.46;100878.66;5063858;28;1111;-57
2024/01/01 03:26:49;;;;;;;;;;;;;;;17.70;46.70;100874.84;5077949;28;1119;-56
2024/01/01 03:29:14;;;;;;;;;;;;;;;16.61;49.11;100882.22;5051410;28;1115;-57
2024/01/01 03:31:42;;;;;;;;;;;;;;;16.12;50.66;100864.22;5060994;28;941;-57
2024/01/01 03:34:08;;;;;;;;;;;;;;;15.80;51.34;100876.13;5061956;28;1113;-57
2024/01/01 03:36:33;;;;;;;;;;;;;;;15.94;51.18;100872.94;5080282;28;1062;-57
2024/01/01 03:38:59;;;;;;;;;;;;;;;17.47;47.27;100865.25;5061665;28;1909;-57
2024/01/01 03:41:26;;;;;;;;;;;;;;;16.73;48.98;100865.47;5079070;28;1130;-57
2024/01/01 03:43:51;;;;;;;;;;;;;;;16.22;50.38;100857.97;5060208;28;1072;-56
2024/01/01 03:46:17;;;;;;;;;;;;;;;15.91;50.97;100844.94;5060363;28;1104;-56
2024/01/01 03:48:43;;;;;;;;;;;;;;;15.66;51.66;100851.09;5080219;28;1218;-57
2024/01/01 03:51:08;;;;;;;;;;;;;;;16.76;49.22;100843.81;5048777;28;1377;-57
2024/01/01 03:53:34;;;;;;;;;;;;;;;17.55;47.15;100842.69;5074749;28;892;-58
2024/01/01 03:55:59;;;;;;;;;;;;;;;16.54;49.37;100845.97;5079950;28;1071;-57
2024/01/01 03:58:25;;;;;;;;;;;;;;;16.08;50.42;100841.97;5079649;28;1975;-54
2024/01/01 04:00:50;;;;;;;;;;;;;;;15.84;51.35;100840.81;5067600;28;1233;-51
2024/01/01 04:03:16;;;;;;;;;;;;;;;15.61;51.66;100845.56;5074377;28;1202;-51
2024/01/01 04:05:42;;;;;;;;;;;;;;;16.45;50.18;100839.34;5070113;28;1438;-51
2024/01/01 04:08:07;;;;;;;;;;;;;;;17.65;46.73;100845.41;5059904;28;1070;-53
2024/01/01 04:10:33;;;;;;;;;;;;;;;16.57;49.29;100837.19;5060703;28;1199;-53
2024/01/01 04:12:58;;;;;;;;;;;;;;;16.07;50.61;100834.88;5079453;28;1159;-51
2024/01/01 04:15:24;;;;;;;;;;;;;;;15.88;51.26;100833.69;5055357;28;1273;-52
2024/01/01 04:17:49;;;;;;;;;;;;;;;16.51;49.68;100838.25;5071773;28;1972;-50
2024/01/01 04:20:15;;;;;;;;;;;;;;;17.60;46.95;100831.69;5078849;28;1070;-47
2024/01/01 04:22:41;;;;;;;;;;;;;;;16.56;49.32;100830.88;5066437;28;1107;-47
2024/01/01 04:25:06;;;;;;;;;;;;;;;16.19;50.33;100834.63;5078074;28;1068;-52
2024/01/01 04:27:32;;;;;;;;;;;;;;;15.88;51.17;100831.75;5072946;28;1403;-52
2024/01/01 04:29:57;;;;;;;;;;;;;;;16.24;50.45;100826.41;5065028;28;890;-54
2024/01/01 04:32:24;;;;;;;;;;;;;;;17.64;46.82;100826.44;5078513;28;1036;-52
2024/01/01 04:34:50;;;;;;;;;;;;;;;16.79;48.77;100833.34;5078554;28;1130;-49
2024/01/01 04:37:16;;;;;;;;;;;;;;;16.23;50.17;100837.66;5078624;28;1913;-55
2024/01/01 04:39:42;;;;;;;;;;;;;;;15.83;51.38;100834.47;5078310;28;1122;-50
2024/01/01 04:42:07;;;;;;;;;;;;;;;15.61;51.84;100831.03;5077887;28;1163;-54
2024/01/01 04:44:33;;;;;;;;;;;;;;;17.15;48.21;100828.72;5068614;28;1264;-50
2024/01/01 04:47:00;;;;;;;;;;;;;;;17.18;48.13;100830.09;5063024;28;922;-52
2024/01/01 04:49:26;;;;;;;;;;;;;;;16.40;50.06;100830.00;5072251;28;1143;-49
2024/01/01 04:51:51;;;;;;;;;;;;;;;15.99;51.12;100827.16;5065836;28;1151;-48
2024/01/01 04:54:17;;;;;;;;;;;;;;;15.78;51.60;100818.00;5077916;28;904;-51
2024/01/01 04:56:43;;;;;;;;;;;;;;;16.25;50.45;100813.50;5079031;28;1096;-48
2024/01/01 04:59:08;;;;;;;;;;;;;;;17.62;46.95;100823.97;5077282;28;1909;-53
2024/01/01 05:01:34;;;;;;;;;;;;;;;16.81;48.73;100821.00;5065358;28;1126;-53
2024/01/01 05:03:59;;;;;;;;;;;;;;;16.23;50.44;100813.78;5078046;28;1055;-55
2024/01/01 05:06:25;;;;;;;;;;;;;;;15.88;51.17;100814.50;5070813;28;863;-52
2024/01/01 05:08:51;;;;;;;;;;;;;;;15.66;51.85;100815.44;5076532;28;1149;-51
2024/01/01 05:11:16;;;;;;;;;;;;;;;15.76;51.77;100819.34;5071134;28;1095;-54
2024/01/01 05:13:42;;;;;;;;;;;;;;;17.28;47.85;100813.59;5071772;28;1095;-50
2024/01/01 05:16:10;;;;;;;;;;;;;;;17.18;47.75;100816.34;5078000;28;1110;-50
2024/01/01 05:18:36;;;;;;;;;;;;;;;16.30;49.91;100805.31;5076035;28;1906;-48
2024/01/01 05:21:01;;;;;;;;;;;;;;;15.98;50.84;100809.03;5077471;28;956;-50
2024/01/01 05:23:27;;;;;;;;;;;;;;;16.22;50.94;100805.81;5068331;28;1039;-50
2024/01/01 05:25:53;;;;;;;;;;;;;;;17.45;47.34;100808.59;5077117;28;1289;-47
2024/01/01 05:28:18;;;;;;;;;;;;;;;16.40;49.61;100797.06;5076842;28;2678;-51
2024/01/01 05:30:44;;;;;;;;;;;;;;;15.99;49.25;100807.97;5068180;28;1170;-49
2024/01/01 05:33:10;;;;;;;;;;;;;;;16.42;49.82;100803.13;5076876;28;1230;-52
2024/01/01 05:35:36;;;;;;;;;;;;;;;16.60;49.38;100798.19;5077021;28;1182;-53
2024/01/01 05:38:02;;;;;;;;;;;;;;;16.15;49.82;100808.00;5077000;28;1905;-51
2024/01/01 05:40:28;;;;;;;;;;;;;;;17.77;47.32;100799.16;5077159;28;1118;-51
2024/01/01 05:42:53;;;;;;;;;;;;;;;16.54;49.11;100811.09;5076438;28;1265;-49
2024/01/01 05:45:19;;;;;;;;;;;;;;;16.21;48.67;100798.69;5076812;28;1062;-51
2024/01/01 05:47:45;;;;;;;;;;;;;;;16.10;48.54;100807.97;5076755;28;1273;-51
2024/01/01 05:50:10;;;;;;;;;;;;;;;17.65;47.81;100793.16;5075777;28;1106;-52
2024/01/01 05:52:36;;;;;;;;;;;;;;;16.72;49.29;100790.53;5076478;28;1203;-52
2024/01/01 05:55:01;;;;;;;;;;;;;;;16.27;48.83;100796.78;5075923;28;1226;-49
2024/01/01 05:57:27;;;;;;;;;;;;;;;16.24;48.83;100798.97;5076037;28;2065;-51
2024/01/01 05:59:52;;;;;;;;;;;;;;;17.08;48.69;100798.78;5076182;28;1091;-48
2024/01/01 06:02:18;;;;;;;;;;;;;;;16.41;48.96;100803.38;5076337;28;1234;-53
2024/01/01 06:04:44;;;;;;;;;;;;;;;16.16;48.36;100801.41;5075862;28;1214;-48
2024/01/01 06:07:09;;;;;;;;;;;;;;;17.42;48.47;100811.91;5076467;28;1251;-50
2024/01/01 06:09:35;;;;;;;;;;;;;;;16.79;49.16;100811.38;5076522;28;1051;-51
2024/01/01 06:12:01;;;;;;;;;;;;;;;16.42;48.35;100811.38;5076477;28;1320;-51
2024/01/01 06:14:27;;;;;;;;;;;;;;;16.20;47.83;100806.09;5058369;28;1223;-52
2024/01/01 06:16:52;;;;;;;;;;;;;;;16.96;49.09;100801.00;5076367;28;1223;-48
2024/01/01 06:19:18;;;;;;;;;;;;;;;16.90;49.30;100804.81;5064489;28;1937;-48
2024/01/01 06:21:43;;;;;;;;;;;;;;;16.37;48.81;100805.06;5076071;28;1206;-52
2024/01/01 06:24:09;;;;;;;;;;;;;;;17.04;48.87;100807.84;5075518;28;1285;-53
2024/01/01 06:26:34;;;;;;;;;;;;;;;17.87;47.43;100809.31;5076422;28;2392;-51
2024/01/01 06:29:00;;;;;;;;;;;;;;;16.77;48.96;100800.69;5045126;28;1151;-52
2024/01/01 06:31:26;;;;;;;;;;;;;;;16.50;48.30;100801.75;5071450;28;892;-48
2024/01/01 06:33:51;;;;;;;;;;;;;;;16.25;47.45;100802.53;5076324;28;1166;-53
2024/01/01 06:36:17;;;;;;;;;;;;;;;16.10;47.22;100805.25;5063376;28;1067;-49
2024/01/01 06:38:43;;;;;;;;;;;;;;;17.02;48.45;100801.81;5043958;28;1906;-52
2024/01/01 06:41:09;;;;;;;;;;;;;;;16.65;49.10;100795.47;5064767;28;1099;-53
2024/01/01 06:43:34;;;;;;;;;;;;;;;16.24;48.74;100790.75;5060804;28;1090;-51
2024/01/01 06:46:00;;;;;;;;;;;;;;;16.67;49.02;100792.44;5076394;28;1019;-50
2024/01/01 06:48:25;;;;;;;;;;;;;;;17.40;48.50;100794.91;5070204;28;1133;-48
2024/01/01 06:50:51;;;;;;;;;;;;;;;16.56;48.97;100786.13;5056626;28;1157;-51
2024/01/01 06:53:16;;;;;;;;;;;;;;;16.58;49.47;100789.44;5069597;28;1118;-50
2024/01/01 06:55:42;;;;;;;;;;;;;;;18.00;47.67;100790.56;5070533;28;997;-51
2024/01/01 06:58:08;;;;;;;;;;;;;;;16.83;49.21;100787.78;5074127;28;2472;-51
2024/01/01 07:00:33;;;;;;;;;;;;;;;16.53;48.34;100800.41;5075575;28;1073;-52
2024/01/01 07:02:59;;;;;;;;;;;;;;;16.39;47.49;100792.69;5075395;28;1143;-46
2024/01/01 07:05:26;;;;;;;;;;;;;;;17.34;48.90;100785.00;5073501;28;1019;-54
2024/01/01 07:07:51;;;;;;;;;;;;;;;16.80;49.09;100788.34;5074502;28;1130;-55
2024/01/01 07:10:17;;;;;;;;;;;;;;;16.52;48.41;100787.75;5072317;28;1313;-55
2024/01/01 07:12:43;;;;;;;;;;;;;;;16.42;48.09;100792.16;5076184;28;1131;-55
2024/01/01 07:15:08;;;;;;;;;;;;;;;17.83;48.22;100779.91;5075557;28;1023;-55
2024/01/01 07:17:34;;;;;;;;;;;;;;;16.77;49.33;100779.56;5075814;28;1976;-55
2024/01/01 07:20:00;;;;;;;;;;;;;;;16.79;49.63;100778.44;5075201;28;857;-55
2024/01/01 07:22:26;;;;;;;;;;;;;;;17.70;48.26;100789.59;5075716;28;1401;-55
2024/01/01 07:24:51;;;;;;;;;;;;;;;16.77;48.87;100790.53;5076318;28;1004;-55
2024/01/01 07:27:17;;;;;;;;;;;;;;;16.55;48.35;100796.28;5065247;28;2251;-55
2024/01/01 07:29:42;;;;;;;;;;;;;;;16.72;48.55;100790.53;5059908;28;1108;-55
2024/01/01 07:32:08;;;;;;;;;;;;;;;17.36;48.80;100793.81;5066662;28;886;-55
2024/01/01 07:34:34;;;;;;;;;;;;;;;16.71;48.73;100788.88;5058072;28;1055;-54
2024/01/01 07:37:00;;;;;;;;;;;;;;;16.40;48.44;100794.34;5062670;28;1086;-54
2024/01/01 07:39:29;;;;;;;;;;;;;;;17.57;48.45;100786.31;5049517;28;1902;-54
2024/01/01 07:41:55;;;;;;;;;;;;;;;16.77;49.32;100787.78;5070503;28;999;-54
2024/01/01 07:44:21;;;;;;;;;;;;;;;16.44;48.57;100789.13;5075529;28;1071;-54
2024/01/01 07:46:49;;;;;;;;;;;;;;;17.24;49.07;100785.84;5075717;28;1007;-54
2024/01/01 07:49:15;;;;;;;;;;;;;;;17.29;49.02;100787.75;5057524;28;1058;-55
2024/01/01 07:51:41;;;;;;;;;;;;;;;16.69;48.71;100791.09;5062334;28;1048;-55
2024/01/01 07:54:06;;;;;;;;;;;;;;;16.65;48.91;100794.63;5062979;28;1099;-54
2024/01/01 07:56:32;;;;;;;;;;;;;;;17.30;48.87;100778.41;5059767;28;2436;-55
2024/01/01 07:58:57;;;;;;;;;;;;;;;16.71;48.98;100777.88;5063063;28;1968;-54
2024/01/01 08:01:23;;;;;;;;;;;;;;;16.49;47.78;100786.38;5074142;28;1036;-54
2024/01/01 08:03:49;;;;;;;;;;;;;;;16.39;48.06;100787.19;5075958;28;1087;-55
2024/01/01 08:06:14;;;;;;;;;;;;;;;17.86;48.26;100782.09;5073248;28;1225;-55
2024/01/01 08:08:40;;;;;;;;;;;;;;;17.15;48.84;100783.94;5067640;28;1150;-54
2024/01/01 08:11:06;;;;;;;;;;;;;;;16.68;48.79;100777.63;5061836;28;1133;-55
2024/01/01 08:13:32;;;;;;;;;;;;;;;16.49;48.14;100780.91;5076434;28;1054;-55
2024/01/01 08:15:57;;;;;;;;;;;;;;;17.08;49.17;100776.81;5061165;28;1020;-55
2024/01/01 08:18:23;;;;;;;;;;;;;;;16.54;48.62;100789.13;5076481;28;1983;-55
2024/01/01 08:20:48;;;;;;;;;;;;;;;17.92;48.16;100783.72;5077174;28;1071;-55
2024/01/01 08:23:14;;;;;;;;;;;;;;;17.31;48.94;100777.31;5078764;28;1039;-55
2024/01/01 08:25:40;;;;;;;;;;;;;;;16.82;48.41;100773.22;5078099;28;1022;-56
2024/01/01 08:28:05;;;;;;;;;;;;;;;16.60;47.66;100776.25;5066908;28;2772;-55
2024/01/01 08:30:31;;;;;;;;;;;;;;;17.67;48.55;100774.47;5072237;28;1098;-55
2024/01/01 08:32:57;;;;;;;;;;;;;;;16.83;49.19;100771.28;5065015;28;1278;-55
2024/01/01 08:35:23;;;;;;;;;;;;;;;16.53;48.23;100781.19;5063180;28;1157;-55
2024/01/01 08:37:49;;;;;;;;;;;;;;;16.37;47.59;100772.13;5067514;28;1980;-55
2024/01/01 08:40:14;;;;;;;;;;;;;;;17.23;48.87;100770.44;5076092;28;1059;-55
2024/01/01 08:42:40;;;;;;;;;;;;;;;17.13;49.42;100762.25;5070227;28;1146;-55
2024/01/01 08:45:06;;;;;;;;;;;;;;;16.63;48.85;100753.72;5077984;28;1099;-55
2024/01/01 08:47:31;;;;;;;;;;;;;;;16.43;48.14;100760.84;5077906;28;1083;-54
2024/01/01 08:49:57;;;;;;;;;;;;;;;16.38;47.17;100758.13;5078437;28;1062;-53
2024/01/01 08:52:23;;;;;;;;;;;;;;;16.70;48.01;100745.22;5077591;28;1003;-55
2024/01/01 08:54:48;;;;;;;;;;;;;;;17.19;48.90;100733.63;5078093;28;1279;-55
2024/01/01 08:57:14;;;;;;;;;;;;;;;16.53;49.13;100731.78;5066673;28;2412;-55
2024/01/01 08:59:39;;;;;;;;;;;;;;;16.34;48.12;100731.47;5077959;28;1000;-55
2024/01/01 09:02:09;;;;;;;;;;;;;;;16.90;48.83;100730.66;5077963;28;1083;-55
2024/01/01 09:04:34;;;;;;;;;;;;;;;16.98;49.22;100721.06;5070247;28;1110;-55
2024/01/01 09:07:01;;;;;;;;;;;;;;;16.43;49.06;100716.94;5072333;28;1259;-54
2024/01/01 09:09:27;;;;;;;;;;;;;;;17.04;49.62;100712.53;5078116;28;1127;-55
2024/01/01 09:11:53;;;;;;;;;;;;;;;17.09;49.46;100717.19;5077177;28;1039;-56
2024/01/01 09:14:18;;;;;;;;;;;;;;;16.66;48.69;100708.44;5059791;28;1074;-55
2024/01/01 09:16:44;;;;;;;;;;;;;;;16.39;47.88;100699.38;5077770;28;1061;-54
2024/01/01 09:19:09;;;;;;;;;;;;;;;16.67;48.74;100699.91;5077612;28;1930;-54
2024/01/01 09:21:35;;;;;;;;;;;;;;;17.42;48.73;100693.72;5059344;28;1138;-55
2024/01/01 09:24:01;;;;;;;;;;;;;;;16.69;49.28;100686.75;5077084;28;1043;-55
2024/01/01 09:26:27;;;;;;;;;;;;;;;16.43;48.26;100683.19;5066795;28;1861;-54
2024/01/01 09:28:53;;;;;;;;;;;;;;;17.03;49.36;100668.88;5077520;28;1060;-55
2024/01/01 09:31:18;;;;;;;;;;;;;;;17.30;49.30;100673.97;5077244;28;1019;-55
2024/01/01 09:33:44;;;;;;;;;;;;;;;16.79;48.83;100668.59;5059205;28;1044;-55
2024/01/01 09:36:11;;;;;;;;;;;;;;;17.21;49.46;100659.19;5066148;28;1079;-55
2024/01/01 09:38:37;;;;;;;;;;;;;;;16.96;49.27;100658.16;5072699;28;1909;-52
2024/01/01 09:41:02;;;;;;;;;;;;;;;16.56;48.62;100657.09;5071361;28;1235;-53
2024/01/01 09:43:28;;;;;;;;;;;;;;;16.39;47.81;100655.47;5074147;28;1293;-55
2024/01/01 09:45:54;;;;;;;;;;;;;;;17.22;49.27;100655.31;5069332;28;1036;-52
2024/01/01 09:48:19;;;;;;;;;;;;;;;17.50;48.61;100645.59;5052533;28;1048;-51
2024/01/01 09:50:48;;;;;;;;;;;;;;;16.83;48.83;100653.22;5067403;28;1116;-55
2024/01/01 09:53:13;;;;;;;;;;;;;;;16.58;48.22;100649.44;5076714;28;1412;-53
2024/01/01 09:55:39;;;;;;;;;;;;;;;17.33;49.37;100637.69;5076384;28;1214;-54
2024/01/01 09:58:05;;;;;;;;;;;;;;;17.27;49.10;100634.13;5058201;28;2140;-54
2024/01/01 10:00:30;;;;;;;;;;;;;;;16.76;49.06;100626.88;5076424;28;1078;-54
2024/01/01 10:03:06;;;;;;;;;;;;;;;16.55;48.10;100630.75;5076236;28;1266;-55
2024/01/01 10:05:31;;;;;;;;;;;;;;;16.37;47.39;100621.19;5076862;28;1494;-51
2024/01/01 10:08:03;;;;;;;;;;;;;;;17.70;48.93;100624.59;5073319;28;1162;-51
2024/01/01 10:10:29;;;;;;;;;;;;;;;17.10;49.37;100611.69;5049230;28;1546;-50
2024/01/01 10:12:56;;;;;;;;;;;;;;;16.66;48.83;100606.84;5059406;28;1128;-51
2024/01/01 10:15:22;;;;;;;;;;;;;;;16.49;47.82;100598.94;5049560;28;1107;-52
2024/01/01 10:17:48;;;;;;;;;;;;;;;16.46;47.48;100596.75;5076164;28;1902;-53
2024/01/01 10:20:13;;;;;;;;;;;;;;;17.81;48.70;100595.06;5076035;28;1266;-52
2024/01/01 10:22:39;;;;;;;;;;;;;;;17.14;49.65;100584.47;5075849;28;1298;-53
2024/01/01 10:25:12;;;;;;;;;;;;;;;16.76;48.97;100577.44;5076053;28;1257;-52
2024/01/01 10:27:47;;;;;;;;;;;;;;;16.57;48.02;100579.97;5067227;28;2403;-53
2024/01/01 10:30:13;;;;;;;;;;;;;;;18.02;48.57;100577.34;5058157;28;1203;-55
2024/01/01 10:32:39;;;;;;;;;;;;;;;17.15;49.15;100569.63;5075797;28;1074;-53
2024/01/01 10:35:05;;;;;;;;;;;;;;;16.74;48.60;100568.66;5075662;28;1202;-54
2024/01/01 10:37:30;;;;;;;;;;;;;;;16.57;47.74;100565.44;5075342;28;1906;-53
2024/01/01 10:39:59;;;;;;;;;;;;;;;16.56;47.89;100561.03;5076021;28;1250;-51
2024/01/01 10:42:30;;;;;;;;;;;;;;;17.85;48.58;100555.72;5065779;28;1305;-52
2024/01/01 10:44:56;;;;;;;;;;;;;;;16.95;49.28;100549.38;5068334;28;1238;-52
2024/01/01 10:47:22;;;;;;;;;;;;;;;16.68;48.45;100553.31;5057384;28;1198;-51
2024/01/01 10:49:53;;;;;;;;;;;;;;;16.54;47.67;100546.78;5058345;28;1231;-52
2024/01/01 10:52:36;;;;;;;;;;;;;;;16.98;48.65;100546.06;5076074;28;1210;-52
2024/01/01 10:55:05;;;;;;;;;;;;;;;17.54;49.03;100530.38;5075883;28;1203;-51
2024/01/01 10:57:37;;;;;;;;;;;;;;;16.78;49.18;100530.47;5073762;28;2400;-53
2024/01/01 11:00:13;;;;;;;;;;;;;;;16.61;48.09;100522.59;5075721;28;1159;-51
2024/01/01 11:02:39;;;;;;;;;;;;;;;16.35;47.66;100522.66;5075112;28;1325;-53
2024/01/01 11:05:08;;;;;;;;;;;;;;;17.53;49.07;100523.22;5075863;28;1266;-52
2024/01/01 11:07:52;;;;;;;;;;;;;;;16.96;49.47;100520.00;5075320;28;1293;-54
2024/01/01 11:10:37;;;;;;;;;;;;;;;16.58;48.59;100509.44;5075171;28;1180;-53
2024/01/01 11:13:03;;;;;;;;;;;;;;;17.49;49.31;100508.41;5075484;28;1115;-53
2024/01/01 11:15:39;;;;;;;;;;;;;;;16.98;49.35;100513.13;5075148;28;1321;-51
2024/01/01 11:18:17;;;;;;;;;;;;;;;16.60;48.76;100505.28;5075379;28;1905;-50
2024/01/01 11:20:55;;;;;;;;;;;;;;;16.50;48.35;100504.53;5074093;28;1136;-50
2024/01/01 11:23:50;;;;;;;;;;;;;;;17.83;48.59;100504.84;5075186;28;1059;-53
2024/01/01 11:26:34;;;;;;;;;;;;;;;16.81;49.22;100501.66;5058819;28;2462;-48
2024/01/01 11:29:03;;;;;;;;;;;;;;;16.54;48.42;100497.38;5073988;28;1258;-52
2024/01/01 11:31:29;;;;;;;;;;;;;;;16.48;47.70;100498.47;5074703;28;1191;-55
2024/01/01 11:33:58;;;;;;;;;;;;;;;17.42;49.02;100492.25;5075055;28;884;-55
2024/01/01 11:36:23;;;;;;;;;;;;;;;16.71;49.35;100486.84;5066028;28;1186;-55
2024/01/01 11:38:51;;;;;;;;;;;;;;;16.52;48.29;100483.94;5045351;28;2032;-54
2024/01/01 11:41:27;;;;;;;;;;;;;;;17.49;48.81;100478.16;5075755;28;1019;-53
2024/01/01 11:43:53;;;;;;;;;;;;;;;17.21;49.50;100475.91;5075450;28;1130;-53
2024/01/01 11:46:27;;;;;;;;;;;;;;;16.80;48.85;100472.53;5075866;28;1134;-53
2024/01/01 11:49:00;;;;;;;;;;;;;;;17.20;49.39;100462.44;5078616;28;1035;-54
2024/01/01 11:51:26;;;;;;;;;;;;;;;17.19;49.43;100458.06;5077726;28;1140;-55
2024/01/01 11:54:07;;;;;;;;;;;;;;;16.86;48.77;100455.75;5069924;28;1255;-55
2024/01/01 11:56:33;;;;;;;;;;;;;;;16.61;48.27;100462.19;5079138;28;2501;-55
2024/01/01 11:58:59;;;;;;;;;;;;;;;17.85;48.37;100459.44;5079797;28;1930;-56
2024/01/01 12:01:25;;;;;;;;;;;;;;;16.85;49.68;100458.78;5065556;28;1500;-56
2024/01/01 12:03:50;;;;;;;;;;;;;;;16.79;49.30;100451.66;5061473;28;1111;-56
2024/01/01 12:06:16;;;;;;;;;;;;;;;18.05;48.04;100457.63;5065516;28;1099;-56
2024/01/01 12:08:42;;;;;;;;;;;;;;;17.13;49.14;100454.53;5072549;28;1179;-52
2024/01/01 12:11:07;;;;;;;;;;;;;;;16.90;48.34;100456.03;5068401;28;1043;-50
2024/01/01 12:13:33;;;;;;;;;;;;;;;16.69;47.47;100450.63;5060159;28;1060;-50
2024/01/01 12:16:14;;;;;;;;;;;;;;;16.57;46.90;100452.88;5077995;28;1056;-54
2024/01/01 12:18:40;;;;;;;;;;;;;;;17.57;48.56;100458.31;5076142;28;1978;-54
2024/01/01 12:21:05;;;;;;;;;;;;;;;17.08;49.31;100463.63;5077682;28;1289;-53
2024/01/01 12:23:31;;;;;;;;;;;;;;;16.69;48.88;100456.13;5075668;28;1107;-53
2024/01/01 12:26:03;;;;;;;;;;;;;;;16.52;47.96;100461.13;5068113;28;1023;-50
2024/01/01 12:28:29;;;;;;;;;;;;;;;17.69;48.68;100461.50;5074513;28;1166;-51
2024/01/01 12:30:54;;;;;;;;;;;;;;;16.96;49.40;100452.16;5064158;28;1139;-54
2024/01/01 12:33:20;;;;;;;;;;;;;;;16.69;48.50;100455.28;5067625;28;1059;-53
2024/01/01 12:35:46;;;;;;;;;;;;;;;16.64;48.29;100458.06;5069136;28;1235;-52
2024/01/01 12:38:11;;;;;;;;;;;;;;;17.37;49.06;100462.84;5064479;28;1906;-52
2024/01/01 12:40:37;;;;;;;;;;;;;;;16.73;49.01;100451.72;5078242;28;1109;-53
2024/01/01 12:43:02;;;;;;;;;;;;;;;16.53;48.26;100440.81;5076183;28;1137;-52
2024/01/01 12:45:28;;;;;;;;;;;;;;;17.22;48.78;100441.84;5066887;28;1215;-53